sensor_id;sensor_type;location;lat;lon;timestamp;P1;durP1;ratioP1;P2;durP2;ratioP2
59685;SDS011;45554;51.096;16.976;2022-10-04T00:03:22;9.30;;;2.10;;
59685;SDS011;45554;51.096;16.976;2022-10-04T00:06:02;8.80;;;1.90;;
59685;SDS011;45554;51.096;16.976;2022-10-04T00:08:37;10.10;;;1.90;;
59685;SDS011;45554;51.096;16.976;2022-10-04T00:11:33;9.30;;;3.20;;
59685;SDS011;45554;51.096;16.976;2022-10-04T00:14:36;8.50;;;1.90;;
59685;SDS011;45554;51.096;16.976;2022-10-04T00:19:51;11.50;;;2.90;;
59685;SDS011;45554;51.096;16.976;2022-10-04T00:22:32;12.40;;;2.40;;
59685;SDS011;45554;51.096;16.976;2022-10-04T00:27:38;7.50;;;1.80;;
59685;SDS011;45554;51.096;16.976;2022-10-04T00:33:07;9.30;;;1.70;;
59685;SDS011;45554;51.096;16.976;2022-10-04T00:35:55;6.50;;;1.20;;
59685;SDS011;45554;51.096;16.976;2022-10-04T00:38:38;6.60;;;1.70;;
59685;SDS011;45554;51.096;16.976;2022-10-04T00:41:19;8.50;;;1.60;;
59685;SDS011;45554;51.096;16.976;2022-10-04T00:50:30;15.80;;;2.60;;
59685;SDS011;45554;51.096;16.976;2022-10-04T00:56:46;11.40;;;1.90;;
59685;SDS011;45554;51.096;16.976;2022-10-04T00:59:36;7.20;;;2.30;;
59685;SDS011;45554;51.096;16.976;2022-10-04T01:04:54;8.60;;;2.10;;
59685;SDS011;45554;51.096;16.976;2022-10-04T01:07:51;7.90;;;2.10;;
59685;SDS011;45554;51.096;16.976;2022-10-04T01:13:20;8.30;;;1.80;;
59685;SDS011;45554;51.096;16.976;2022-10-04T01:16:09;12.20;;;2.00;;
59685;SDS011;45554;51.096;16.976;2022-10-04T01:18:44;10.40;;;2.50;;
59685;SDS011;45554;51.096;16.976;2022-10-04T01:24:29;7.20;;;1.60;;
59685;SDS011;45554;51.096;16.976;2022-10-04T01:27:29;10.70;;;2.50;;
59685;SDS011;45554;51.096;16.976;2022-10-04T01:30:02;11.10;;;2.10;;
59685;SDS011;45554;51.096;16.976;2022-10-04T01:32:36;7.40;;;1.40;;
59685;SDS011;45554;51.096;16.976;2022-10-04T01:35:07;6.70;;;1.60;;
59685;SDS011;45554;51.096;16.976;2022-10-04T01:37:38;7.90;;;2.20;;
59685;SDS011;45554;51.096;16.976;2022-10-04T01:40:13;6.70;;;2.00;;
59685;SDS011;45554;51.096;16.976;2022-10-04T01:42:53;7.80;;;1.50;;
59685;SDS011;45554;51.096;16.976;2022-10-04T01:45:37;8.30;;;1.70;;
59685;SDS011;45554;51.096;16.976;2022-10-04T01:48:11;10.50;;;1.80;;
59685;SDS011;45554;51.096;16.976;2022-10-04T01:50:47;10.10;;;2.10;;
59685;SDS011;45554;51.096;16.976;2022-10-04T01:53:28;7.80;;;2.10;;
59685;SDS011;45554;51.096;16.976;2022-10-04T01:56:07;9.90;;;2.40;;
59685;SDS011;45554;51.096;16.976;2022-10-04T01:58:47;7.50;;;2.00;;
59685;SDS011;45554;51.096;16.976;2022-10-04T02:01:22;5.60;;;1.50;;
59685;SDS011;45554;51.096;16.976;2022-10-04T02:04:12;14.10;;;2.10;;
59685;SDS011;45554;51.096;16.976;2022-10-04T02:06:50;7.40;;;1.80;;
59685;SDS011;45554;51.096;16.976;2022-10-04T02:09:23;8.20;;;1.70;;
59685;SDS011;45554;51.096;16.976;2022-10-04T02:11:55;7.60;;;1.70;;
59685;SDS011;45554;51.096;16.976;2022-10-04T02:14:34;11.10;;;1.80;;
59685;SDS011;45554;51.096;16.976;2022-10-04T02:17:06;8.60;;;2.00;;
59685;SDS011;45554;51.096;16.976;2022-10-04T02:19:39;9.30;;;2.00;;
59685;SDS011;45554;51.096;16.976;2022-10-04T02:22:10;10.20;;;1.90;;
59685;SDS011;45554;51.096;16.976;2022-10-04T02:24:43;8.00;;;1.90;;
59685;SDS011;45554;51.096;16.976;2022-10-04T02:27:26;8.70;;;2.40;;
59685;SDS011;45554;51.096;16.976;2022-10-04T02:30:26;7.10;;;2.00;;
59685;SDS011;45554;51.096;16.976;2022-10-04T02:35:33;11.60;;;2.30;;
59685;SDS011;45554;51.096;16.976;2022-10-04T02:38:25;10.20;;;2.30;;
59685;SDS011;45554;51.096;16.976;2022-10-04T02:44:02;8.70;;;2.80;;
59685;SDS011;45554;51.096;16.976;2022-10-04T02:49:59;9.60;;;2.40;;
59685;SDS011;45554;51.096;16.976;2022-10-04T02:52:45;5.60;;;1.70;;
59685;SDS011;45554;51.096;16.976;2022-10-04T02:55:22;10.60;;;2.00;;
59685;SDS011;45554;51.096;16.976;2022-10-04T02:57:57;6.20;;;1.90;;
59685;SDS011;45554;51.096;16.976;2022-10-04T03:00:34;10.70;;;2.20;;
59685;SDS011;45554;51.096;16.976;2022-10-04T03:03:24;9.00;;;1.90;;
59685;SDS011;45554;51.096;16.976;2022-10-04T03:06:11;6.40;;;1.60;;
59685;SDS011;45554;51.096;16.976;2022-10-04T03:08:53;9.70;;;2.00;;
59685;SDS011;45554;51.096;16.976;2022-10-04T03:11:29;11.60;;;2.10;;
59685;SDS011;45554;51.096;16.976;2022-10-04T03:14:02;7.00;;;1.60;;
59685;SDS011;45554;51.096;16.976;2022-10-04T03:16:37;10.10;;;2.20;;
59685;SDS011;45554;51.096;16.976;2022-10-04T03:19:26;9.50;;;2.10;;
59685;SDS011;45554;51.096;16.976;2022-10-04T03:22:09;7.40;;;1.80;;
59685;SDS011;45554;51.096;16.976;2022-10-04T03:25:05;10.40;;;1.90;;
59685;SDS011;45554;51.096;16.976;2022-10-04T03:27:44;8.10;;;1.90;;
59685;SDS011;45554;51.096;16.976;2022-10-04T03:30:20;11.20;;;2.10;;
59685;SDS011;45554;51.096;16.976;2022-10-04T03:32:52;8.10;;;1.90;;
59685;SDS011;45554;51.096;16.976;2022-10-04T03:37:56;8.00;;;1.90;;
59685;SDS011;45554;51.096;16.976;2022-10-04T03:40:30;7.70;;;2.10;;
59685;SDS011;45554;51.096;16.976;2022-10-04T03:43:12;8.30;;;2.30;;
59685;SDS011;45554;51.096;16.976;2022-10-04T03:45:47;10.50;;;2.50;;
59685;SDS011;45554;51.096;16.976;2022-10-04T03:48:47;8.60;;;1.90;;
59685;SDS011;45554;51.096;16.976;2022-10-04T03:51:21;8.70;;;1.90;;
59685;SDS011;45554;51.096;16.976;2022-10-04T03:54:07;5.50;;;2.20;;
59685;SDS011;45554;51.096;16.976;2022-10-04T03:56:59;12.00;;;2.10;;
59685;SDS011;45554;51.096;16.976;2022-10-04T04:02:40;8.30;;;2.10;;
59685;SDS011;45554;51.096;16.976;2022-10-04T04:05:32;9.20;;;1.90;;
59685;SDS011;45554;51.096;16.976;2022-10-04T04:08:23;10.00;;;2.60;;
59685;SDS011;45554;51.096;16.976;2022-10-04T04:11:00;7.40;;;2.20;;
59685;SDS011;45554;51.096;16.976;2022-10-04T04:14:00;8.80;;;2.20;;
59685;SDS011;45554;51.096;16.976;2022-10-04T04:16:35;7.50;;;2.20;;
59685;SDS011;45554;51.096;16.976;2022-10-04T04:22:02;9.30;;;2.20;;
59685;SDS011;45554;51.096;16.976;2022-10-04T04:24:32;8.10;;;2.40;;
59685;SDS011;45554;51.096;16.976;2022-10-04T04:27:05;7.70;;;2.10;;
59685;SDS011;45554;51.096;16.976;2022-10-04T04:29:44;9.40;;;2.70;;
59685;SDS011;45554;51.096;16.976;2022-10-04T04:32:24;10.30;;;3.60;;
59685;SDS011;45554;51.096;16.976;2022-10-04T04:37:43;7.70;;;2.70;;
59685;SDS011;45554;51.096;16.976;2022-10-04T04:40:21;10.50;;;3.10;;
59685;SDS011;45554;51.096;16.976;2022-10-04T04:42:56;11.90;;;3.70;;
59685;SDS011;45554;51.096;16.976;2022-10-04T04:45:29;11.20;;;3.80;;
59685;SDS011;45554;51.096;16.976;2022-10-04T04:48:10;15.00;;;4.50;;
59685;SDS011;45554;51.096;16.976;2022-10-04T04:51:02;10.60;;;3.50;;
59685;SDS011;45554;51.096;16.976;2022-10-04T04:53:32;12.50;;;4.00;;
59685;SDS011;45554;51.096;16.976;2022-10-04T04:56:06;11.50;;;3.30;;
59685;SDS011;45554;51.096;16.976;2022-10-04T04:58:40;10.60;;;3.10;;
59685;SDS011;45554;51.096;16.976;2022-10-04T05:01:43;8.30;;;2.70;;
59685;SDS011;45554;51.096;16.976;2022-10-04T05:04:26;8.90;;;3.10;;
59685;SDS011;45554;51.096;16.976;2022-10-04T05:07:14;7.30;;;2.80;;
59685;SDS011;45554;51.096;16.976;2022-10-04T05:09:46;7.80;;;2.10;;
59685;SDS011;45554;51.096;16.976;2022-10-04T05:14:52;9.00;;;2.60;;
59685;SDS011;45554;51.096;16.976;2022-10-04T05:17:29;6.60;;;1.60;;
59685;SDS011;45554;51.096;16.976;2022-10-04T05:20:02;10.70;;;2.40;;
59685;SDS011;45554;51.096;16.976;2022-10-04T05:22:32;13.50;;;2.90;;
59685;SDS011;45554;51.096;16.976;2022-10-04T05:25:08;9.30;;;2.10;;
59685;SDS011;45554;51.096;16.976;2022-10-04T05:27:46;8.50;;;2.00;;
59685;SDS011;45554;51.096;16.976;2022-10-04T05:30:38;10.50;;;2.20;;
59685;SDS011;45554;51.096;16.976;2022-10-04T05:33:44;10.80;;;2.40;;
59685;SDS011;45554;51.096;16.976;2022-10-04T05:43:18;10.50;;;1.90;;
59685;SDS011;45554;51.096;16.976;2022-10-04T05:46:14;7.10;;;1.70;;
59685;SDS011;45554;51.096;16.976;2022-10-04T05:48:51;6.20;;;1.90;;
59685;SDS011;45554;51.096;16.976;2022-10-04T05:51:28;9.00;;;1.80;;
59685;SDS011;45554;51.096;16.976;2022-10-04T05:54:04;6.70;;;1.60;;
59685;SDS011;45554;51.096;16.976;2022-10-04T05:56:46;10.00;;;1.90;;
59685;SDS011;45554;51.096;16.976;2022-10-04T05:59:26;12.20;;;2.30;;
59685;SDS011;45554;51.096;16.976;2022-10-04T06:19:16;11.40;;;2.20;;
59685;SDS011;45554;51.096;16.976;2022-10-04T06:22:18;13.00;;;2.40;;
59685;SDS011;45554;51.096;16.976;2022-10-04T06:24:59;8.60;;;2.10;;
59685;SDS011;45554;51.096;16.976;2022-10-04T06:27:48;10.90;;;2.00;;
59685;SDS011;45554;51.096;16.976;2022-10-04T06:30:24;7.30;;;2.80;;
59685;SDS011;45554;51.096;16.976;2022-10-04T06:39:04;8.70;;;1.90;;
59685;SDS011;45554;51.096;16.976;2022-10-04T06:44:40;13.00;;;2.00;;
59685;SDS011;45554;51.096;16.976;2022-10-04T06:47:43;9.80;;;1.70;;
59685;SDS011;45554;51.096;16.976;2022-10-04T06:50:32;8.80;;;1.70;;
59685;SDS011;45554;51.096;16.976;2022-10-04T06:53:22;10.30;;;2.60;;
59685;SDS011;45554;51.096;16.976;2022-10-04T07:01:37;8.00;;;1.60;;
59685;SDS011;45554;51.096;16.976;2022-10-04T07:04:27;7.50;;;2.20;;
59685;SDS011;45554;51.096;16.976;2022-10-04T07:18:38;11.00;;;2.10;;
59685;SDS011;45554;51.096;16.976;2022-10-04T07:21:16;13.50;;;2.30;;
59685;SDS011;45554;51.096;16.976;2022-10-04T07:23:52;9.90;;;1.70;;
59685;SDS011;45554;51.096;16.976;2022-10-04T07:29:24;7.00;;;1.70;;
59685;SDS011;45554;51.096;16.976;2022-10-04T07:32:21;9.30;;;1.60;;
59685;SDS011;45554;51.096;16.976;2022-10-04T07:40:39;10.60;;;2.00;;
59685;SDS011;45554;51.096;16.976;2022-10-04T07:43:31;7.30;;;1.80;;
59685;SDS011;45554;51.096;16.976;2022-10-04T07:46:20;9.20;;;1.70;;
59685;SDS011;45554;51.096;16.976;2022-10-04T07:49:09;8.30;;;1.70;;
59685;SDS011;45554;51.096;16.976;2022-10-04T07:52:01;8.60;;;1.50;;
59685;SDS011;45554;51.096;16.976;2022-10-04T07:57:40;8.70;;;1.60;;
59685;SDS011;45554;51.096;16.976;2022-10-04T08:00:38;8.80;;;1.90;;
59685;SDS011;45554;51.096;16.976;2022-10-04T08:06:50;9.40;;;2.10;;
59685;SDS011;45554;51.096;16.976;2022-10-04T08:12:27;9.60;;;2.10;;
59685;SDS011;45554;51.096;16.976;2022-10-04T08:17:48;6.80;;;1.70;;
59685;SDS011;45554;51.096;16.976;2022-10-04T08:20:37;7.50;;;1.70;;
59685;SDS011;45554;51.096;16.976;2022-10-04T08:29:12;8.70;;;1.60;;
59685;SDS011;45554;51.096;16.976;2022-10-04T08:35:22;7.10;;;1.60;;
59685;SDS011;45554;51.096;16.976;2022-10-04T08:47:14;7.70;;;1.80;;
59685;SDS011;45554;51.096;16.976;2022-10-04T08:56:47;7.70;;;1.70;;
59685;SDS011;45554;51.096;16.976;2022-10-04T09:08:59;8.80;;;1.70;;
59685;SDS011;45554;51.096;16.976;2022-10-04T09:17:26;8.00;;;2.10;;
59685;SDS011;45554;51.096;16.976;2022-10-04T09:26:44;7.70;;;1.70;;
59685;SDS011;45554;51.096;16.976;2022-10-04T09:52:47;6.90;;;1.60;;
59685;SDS011;45554;51.096;16.976;2022-10-04T09:55:40;6.20;;;1.60;;
59685;SDS011;45554;51.096;16.976;2022-10-04T09:58:39;5.90;;;1.30;;
59685;SDS011;45554;51.096;16.976;2022-10-04T10:05:09;4.70;;;1.50;;
59685;SDS011;45554;51.096;16.976;2022-10-04T10:14:05;4.30;;;1.60;;
59685;SDS011;45554;51.096;16.976;2022-10-04T10:17:04;6.60;;;1.60;;
59685;SDS011;45554;51.096;16.976;2022-10-04T10:36:53;5.00;;;1.50;;
59685;SDS011;45554;51.096;16.976;2022-10-04T10:40:02;4.10;;;1.40;;
59685;SDS011;45554;51.096;16.976;2022-10-04T10:43:51;4.00;;;1.10;;
59685;SDS011;45554;51.096;16.976;2022-10-04T10:48:49;6.80;;;1.80;;
59685;SDS011;45554;51.096;16.976;2022-10-04T10:51:46;6.70;;;1.60;;
59685;SDS011;45554;51.096;16.976;2022-10-04T11:00:58;7.10;;;1.50;;
59685;SDS011;45554;51.096;16.976;2022-10-04T11:09:49;6.90;;;1.40;;
59685;SDS011;45554;51.096;16.976;2022-10-04T11:15:32;4.40;;;1.30;;
59685;SDS011;45554;51.096;16.976;2022-10-04T11:18:12;4.90;;;1.20;;
59685;SDS011;45554;51.096;16.976;2022-10-04T11:39:44;4.30;;;1.10;;
59685;SDS011;45554;51.096;16.976;2022-10-04T11:45:52;8.60;;;1.50;;
59685;SDS011;45554;51.096;16.976;2022-10-04T11:59:40;8.20;;;1.50;;
59685;SDS011;45554;51.096;16.976;2022-10-04T12:15:46;6.70;;;1.40;;
59685;SDS011;45554;51.096;16.976;2022-10-04T12:25:00;5.70;;;1.00;;
59685;SDS011;45554;51.096;16.976;2022-10-04T12:31:31;3.80;;;1.00;;
59685;SDS011;45554;51.096;16.976;2022-10-04T12:34:54;4.40;;;1.00;;
59685;SDS011;45554;51.096;16.976;2022-10-04T12:41:18;6.20;;;1.20;;
59685;SDS011;45554;51.096;16.976;2022-10-04T13:13:20;6.10;;;1.30;;
59685;SDS011;45554;51.096;16.976;2022-10-04T13:22:32;3.50;;;1.10;;
59685;SDS011;45554;51.096;16.976;2022-10-04T13:26:24;3.40;;;0.90;;
59685;SDS011;45554;51.096;16.976;2022-10-04T13:31:45;4.20;;;1.30;;
59685;SDS011;45554;51.096;16.976;2022-10-04T13:34:44;8.30;;;1.40;;
59685;SDS011;45554;51.096;16.976;2022-10-04T13:37:30;6.00;;;1.40;;
59685;SDS011;45554;51.096;16.976;2022-10-04T13:40:27;6.30;;;1.70;;
59685;SDS011;45554;51.096;16.976;2022-10-04T13:46:00;4.60;;;1.20;;
59685;SDS011;45554;51.096;16.976;2022-10-04T14:16:42;4.00;;;0.90;;
59685;SDS011;45554;51.096;16.976;2022-10-04T14:25:53;5.50;;;1.20;;
59685;SDS011;45554;51.096;16.976;2022-10-04T14:50:17;3.90;;;1.20;;
59685;SDS011;45554;51.096;16.976;2022-10-04T14:56:03;4.20;;;1.30;;
59685;SDS011;45554;51.096;16.976;2022-10-04T14:58:54;3.20;;;1.10;;
59685;SDS011;45554;51.096;16.976;2022-10-04T15:01:30;4.00;;;1.30;;
59685;SDS011;45554;51.096;16.976;2022-10-04T15:15:48;18.80;;;8.10;;
59685;SDS011;45554;51.096;16.976;2022-10-04T15:27:36;4.50;;;1.30;;
59685;SDS011;45554;51.096;16.976;2022-10-04T15:30:43;8.60;;;1.90;;
59685;SDS011;45554;51.096;16.976;2022-10-04T15:42:12;5.20;;;1.50;;
59685;SDS011;45554;51.096;16.976;2022-10-04T15:44:51;8.10;;;1.80;;
59685;SDS011;45554;51.096;16.976;2022-10-04T15:47:29;4.60;;;1.40;;
59685;SDS011;45554;51.096;16.976;2022-10-04T15:55:50;6.00;;;1.70;;
59685;SDS011;45554;51.096;16.976;2022-10-04T15:58:24;10.20;;;2.20;;
59685;SDS011;45554;51.096;16.976;2022-10-04T16:01:26;7.80;;;2.00;;
59685;SDS011;45554;51.096;16.976;2022-10-04T16:09:59;8.00;;;1.80;;
59685;SDS011;45554;51.096;16.976;2022-10-04T16:12:51;6.80;;;1.60;;
59685;SDS011;45554;51.096;16.976;2022-10-04T16:15:34;6.90;;;2.00;;
59685;SDS011;45554;51.096;16.976;2022-10-04T16:32:37;10.00;;;2.10;;
59685;SDS011;45554;51.096;16.976;2022-10-04T16:43:30;7.50;;;2.20;;
59685;SDS011;45554;51.096;16.976;2022-10-04T16:49:14;9.20;;;2.20;;
59685;SDS011;45554;51.096;16.976;2022-10-04T17:04:54;10.70;;;2.40;;
59685;SDS011;45554;51.096;16.976;2022-10-04T17:11:29;8.80;;;3.20;;
59685;SDS011;45554;51.096;16.976;2022-10-04T17:14:20;6.20;;;2.60;;
59685;SDS011;45554;51.096;16.976;2022-10-04T17:17:20;8.60;;;2.80;;
59685;SDS011;45554;51.096;16.976;2022-10-04T17:20:51;9.90;;;2.90;;
59685;SDS011;45554;51.096;16.976;2022-10-04T17:23:49;8.60;;;3.90;;
59685;SDS011;45554;51.096;16.976;2022-10-04T17:30:25;8.60;;;2.80;;
59685;SDS011;45554;51.096;16.976;2022-10-04T17:36:40;7.40;;;3.10;;
59685;SDS011;45554;51.096;16.976;2022-10-04T17:52:23;14.20;;;6.00;;
59685;SDS011;45554;51.096;16.976;2022-10-04T17:56:06;14.90;;;6.60;;
59685;SDS011;45554;51.096;16.976;2022-10-04T18:01:50;13.50;;;7.30;;
59685;SDS011;45554;51.096;16.976;2022-10-04T18:04:48;17.40;;;6.90;;
59685;SDS011;45554;51.096;16.976;2022-10-04T18:07:30;13.40;;;7.50;;
59685;SDS011;45554;51.096;16.976;2022-10-04T18:13:31;13.20;;;6.90;;
59685;SDS011;45554;51.096;16.976;2022-10-04T18:16:13;14.00;;;5.90;;
59685;SDS011;45554;51.096;16.976;2022-10-04T18:18:45;14.20;;;6.40;;
59685;SDS011;45554;51.096;16.976;2022-10-04T18:21:28;13.90;;;6.20;;
59685;SDS011;45554;51.096;16.976;2022-10-04T18:26:58;12.80;;;5.10;;
59685;SDS011;45554;51.096;16.976;2022-10-04T18:29:37;15.00;;;5.50;;
59685;SDS011;45554;51.096;16.976;2022-10-04T18:34:56;16.40;;;5.60;;
59685;SDS011;45554;51.096;16.976;2022-10-04T18:40:12;13.00;;;5.30;;
59685;SDS011;45554;51.096;16.976;2022-10-04T18:42:57;14.40;;;7.00;;
59685;SDS011;45554;51.096;16.976;2022-10-04T18:45:33;12.90;;;6.60;;
59685;SDS011;45554;51.096;16.976;2022-10-04T18:48:13;16.60;;;7.00;;
59685;SDS011;45554;51.096;16.976;2022-10-04T18:50:49;13.60;;;6.60;;
59685;SDS011;45554;51.096;16.976;2022-10-04T18:53:22;15.60;;;6.30;;
59685;SDS011;45554;51.096;16.976;2022-10-04T18:56:21;14.30;;;6.10;;
59685;SDS011;45554;51.096;16.976;2022-10-04T18:59:47;16.20;;;6.80;;
59685;SDS011;45554;51.096;16.976;2022-10-04T19:05:24;16.50;;;6.20;;
59685;SDS011;45554;51.096;16.976;2022-10-04T19:08:12;15.80;;;6.40;;
59685;SDS011;45554;51.096;16.976;2022-10-04T19:10:50;14.60;;;6.60;;
59685;SDS011;45554;51.096;16.976;2022-10-04T19:22:19;16.10;;;6.50;;
59685;SDS011;45554;51.096;16.976;2022-10-04T19:27:41;14.40;;;7.30;;
59685;SDS011;45554;51.096;16.976;2022-10-04T19:33:51;17.80;;;7.60;;
59685;SDS011;45554;51.096;16.976;2022-10-04T19:36:26;19.40;;;8.10;;
59685;SDS011;45554;51.096;16.976;2022-10-04T19:39:22;16.90;;;8.10;;
59685;SDS011;45554;51.096;16.976;2022-10-04T19:42:19;18.10;;;7.60;;
59685;SDS011;45554;51.096;16.976;2022-10-04T19:47:46;15.70;;;8.00;;
59685;SDS011;45554;51.096;16.976;2022-10-04T19:53:18;16.00;;;8.10;;
59685;SDS011;45554;51.096;16.976;2022-10-04T19:55:54;14.00;;;7.30;;
59685;SDS011;45554;51.096;16.976;2022-10-04T19:58:40;18.80;;;8.00;;
59685;SDS011;45554;51.096;16.976;2022-10-04T20:01:13;17.30;;;8.90;;
59685;SDS011;45554;51.096;16.976;2022-10-04T20:03:44;17.30;;;8.30;;
59685;SDS011;45554;51.096;16.976;2022-10-04T20:06:19;15.70;;;7.50;;
59685;SDS011;45554;51.096;16.976;2022-10-04T20:08:53;14.30;;;7.50;;
59685;SDS011;45554;51.096;16.976;2022-10-04T20:11:46;17.70;;;8.70;;
59685;SDS011;45554;51.096;16.976;2022-10-04T20:17:01;20.50;;;12.60;;
59685;SDS011;45554;51.096;16.976;2022-10-04T20:19:37;22.90;;;12.00;;
59685;SDS011;45554;51.096;16.976;2022-10-04T20:29:57;20.50;;;10.20;;
59685;SDS011;45554;51.096;16.976;2022-10-04T20:35:09;18.90;;;9.90;;
59685;SDS011;45554;51.096;16.976;2022-10-04T20:40:55;17.90;;;9.40;;
59685;SDS011;45554;51.096;16.976;2022-10-04T20:43:26;18.70;;;9.10;;
59685;SDS011;45554;51.096;16.976;2022-10-04T20:45:58;17.60;;;9.40;;
59685;SDS011;45554;51.096;16.976;2022-10-04T20:48:36;21.00;;;9.00;;
59685;SDS011;45554;51.096;16.976;2022-10-04T20:51:17;17.40;;;8.60;;
59685;SDS011;45554;51.096;16.976;2022-10-04T20:53:53;17.00;;;9.10;;
59685;SDS011;45554;51.096;16.976;2022-10-04T20:56:29;18.90;;;10.30;;
59685;SDS011;45554;51.096;16.976;2022-10-04T20:59:12;17.90;;;9.60;;
59685;SDS011;45554;51.096;16.976;2022-10-04T21:04:53;16.90;;;9.10;;
59685;SDS011;45554;51.096;16.976;2022-10-04T21:07:45;17.10;;;9.50;;
59685;SDS011;45554;51.096;16.976;2022-10-04T21:10:59;18.00;;;8.70;;
59685;SDS011;45554;51.096;16.976;2022-10-04T21:13:59;19.40;;;9.10;;
59685;SDS011;45554;51.096;16.976;2022-10-04T21:16:34;18.80;;;9.80;;
59685;SDS011;45554;51.096;16.976;2022-10-04T21:22:30;20.20;;;9.30;;
59685;SDS011;45554;51.096;16.976;2022-10-04T21:28:31;17.90;;;9.70;;
59685;SDS011;45554;51.096;16.976;2022-10-04T21:31:11;17.20;;;9.70;;
59685;SDS011;45554;51.096;16.976;2022-10-04T21:33:57;17.20;;;9.40;;
59685;SDS011;45554;51.096;16.976;2022-10-04T21:36:40;23.00;;;9.30;;
59685;SDS011;45554;51.096;16.976;2022-10-04T21:39:14;18.20;;;8.80;;
59685;SDS011;45554;51.096;16.976;2022-10-04T21:41:58;17.50;;;8.80;;
59685;SDS011;45554;51.096;16.976;2022-10-04T21:44:29;15.90;;;8.90;;
59685;SDS011;45554;51.096;16.976;2022-10-04T21:46:58;16.90;;;8.50;;
59685;SDS011;45554;51.096;16.976;2022-10-04T21:49:29;16.80;;;8.90;;
59685;SDS011;45554;51.096;16.976;2022-10-04T21:52:09;17.60;;;9.10;;
59685;SDS011;45554;51.096;16.976;2022-10-04T21:54:58;15.30;;;9.00;;
59685;SDS011;45554;51.096;16.976;2022-10-04T21:57:40;20.60;;;9.10;;
59685;SDS011;45554;51.096;16.976;2022-10-04T22:00:31;16.10;;;9.30;;
59685;SDS011;45554;51.096;16.976;2022-10-04T22:02:59;18.70;;;9.60;;
59685;SDS011;45554;51.096;16.976;2022-10-04T22:05:31;17.10;;;8.90;;
59685;SDS011;45554;51.096;16.976;2022-10-04T22:08:02;15.80;;;9.10;;
59685;SDS011;45554;51.096;16.976;2022-10-04T22:10:34;21.50;;;10.00;;
59685;SDS011;45554;51.096;16.976;2022-10-04T22:13:09;17.60;;;9.50;;
59685;SDS011;45554;51.096;16.976;2022-10-04T22:15:56;19.80;;;10.10;;
59685;SDS011;45554;51.096;16.976;2022-10-04T22:18:59;19.80;;;9.60;;
59685;SDS011;45554;51.096;16.976;2022-10-04T22:22:15;15.60;;;8.90;;
59685;SDS011;45554;51.096;16.976;2022-10-04T22:25:19;19.50;;;10.80;;
59685;SDS011;45554;51.096;16.976;2022-10-04T22:27:52;17.80;;;10.50;;
59685;SDS011;45554;51.096;16.976;2022-10-04T22:30:25;20.80;;;11.00;;
59685;SDS011;45554;51.096;16.976;2022-10-04T22:33:15;18.60;;;8.90;;
59685;SDS011;45554;51.096;16.976;2022-10-04T22:36:23;20.80;;;10.30;;
59685;SDS011;45554;51.096;16.976;2022-10-04T22:39:35;17.30;;;9.00;;
59685;SDS011;45554;51.096;16.976;2022-10-04T22:42:27;19.60;;;9.70;;
59685;SDS011;45554;51.096;16.976;2022-10-04T22:45:15;18.30;;;9.40;;
59685;SDS011;45554;51.096;16.976;2022-10-04T22:50:43;18.10;;;9.50;;
59685;SDS011;45554;51.096;16.976;2022-10-04T22:53:52;17.80;;;9.90;;
59685;SDS011;45554;51.096;16.976;2022-10-04T22:56:24;16.90;;;10.00;;
59685;SDS011;45554;51.096;16.976;2022-10-04T22:59:14;17.70;;;9.90;;
59685;SDS011;45554;51.096;16.976;2022-10-04T23:02:05;16.40;;;9.20;;
59685;SDS011;45554;51.096;16.976;2022-10-04T23:05:08;16.20;;;9.20;;
59685;SDS011;45554;51.096;16.976;2022-10-04T23:08:07;16.40;;;8.80;;
59685;SDS011;45554;51.096;16.976;2022-10-04T23:10:52;16.60;;;9.40;;
59685;SDS011;45554;51.096;16.976;2022-10-04T23:13:52;14.80;;;9.10;;
59685;SDS011;45554;51.096;16.976;2022-10-04T23:16:46;18.20;;;9.30;;
59685;SDS011;45554;51.096;16.976;2022-10-04T23:19:46;16.70;;;8.20;;
59685;SDS011;45554;51.096;16.976;2022-10-04T23:22:26;18.60;;;8.50;;
59685;SDS011;45554;51.096;16.976;2022-10-04T23:25:05;13.80;;;7.90;;
59685;SDS011;45554;51.096;16.976;2022-10-04T23:28:20;14.10;;;8.20;;
59685;SDS011;45554;51.096;16.976;2022-10-04T23:31:28;15.20;;;7.80;;
59685;SDS011;45554;51.096;16.976;2022-10-04T23:33:58;15.30;;;8.70;;
59685;SDS011;45554;51.096;16.976;2022-10-04T23:36:35;14.60;;;8.40;;
59685;SDS011;45554;51.096;16.976;2022-10-04T23:39:17;16.00;;;7.90;;
59685;SDS011;45554;51.096;16.976;2022-10-04T23:42:26;15.70;;;8.30;;
59685;SDS011;45554;51.096;16.976;2022-10-04T23:45:26;16.90;;;8.30;;
59685;SDS011;45554;51.096;16.976;2022-10-04T23:48:42;13.70;;;8.20;;
59685;SDS011;45554;51.096;16.976;2022-10-04T23:51:35;15.00;;;8.40;;
59685;SDS011;45554;51.096;16.976;2022-10-04T23:54:33;15.90;;;8.40;;
